sensor_id;sensor_type;location;lat;lon;timestamp;P1;durP1;ratioP1;P2;durP2;ratioP2
13805;SDS011;6974;53.606;9.872;2023-08-08T00:00:52;5.97;;;2.57;;
13805;SDS011;6974;53.606;9.872;2023-08-08T00:03:19;4.30;;;2.53;;
13805;SDS011;6974;53.606;9.872;2023-08-08T00:05:46;3.80;;;2.47;;
13805;SDS011;6974;53.606;9.872;2023-08-08T00:08:14;6.90;;;3.00;;
13805;SDS011;6974;53.606;9.872;2023-08-08T00:10:41;3.77;;;2.50;;
13805;SDS011;6974;53.606;9.872;2023-08-08T00:13:08;4.77;;;2.50;;
13805;SDS011;6974;53.606;9.872;2023-08-08T00:15:35;7.30;;;2.97;;
13805;SDS011;6974;53.606;9.872;2023-08-08T00:18:02;6.50;;;3.13;;
13805;SDS011;6974;53.606;9.872;2023-08-08T00:20:29;5.83;;;3.17;;
13805;SDS011;6974;53.606;9.872;2023-08-08T00:22:56;5.03;;;2.73;;
13805;SDS011;6974;53.606;9.872;2023-08-08T00:25:24;5.40;;;3.00;;
13805;SDS011;6974;53.606;9.872;2023-08-08T00:27:51;3.83;;;3.00;;
13805;SDS011;6974;53.606;9.872;2023-08-08T00:30:18;5.77;;;3.07;;
13805;SDS011;6974;53.606;9.872;2023-08-08T00:32:45;5.03;;;2.90;;
13805;SDS011;6974;53.606;9.872;2023-08-08T00:35:12;3.77;;;2.83;;
13805;SDS011;6974;53.606;9.872;2023-08-08T00:37:39;3.90;;;2.87;;
13805;SDS011;6974;53.606;9.872;2023-08-08T00:40:06;6.87;;;3.20;;
13805;SDS011;6974;53.606;9.872;2023-08-08T00:42:35;5.20;;;3.00;;
13805;SDS011;6974;53.606;9.872;2023-08-08T00:45:02;4.53;;;2.77;;
13805;SDS011;6974;53.606;9.872;2023-08-08T00:47:30;4.90;;;2.83;;
13805;SDS011;6974;53.606;9.872;2023-08-08T00:49:58;4.40;;;2.60;;
13805;SDS011;6974;53.606;9.872;2023-08-08T00:52:25;6.37;;;2.47;;
13805;SDS011;6974;53.606;9.872;2023-08-08T00:54:52;5.07;;;2.40;;
13805;SDS011;6974;53.606;9.872;2023-08-08T00:57:19;6.90;;;2.70;;
13805;SDS011;6974;53.606;9.872;2023-08-08T00:59:48;5.63;;;2.80;;
13805;SDS011;6974;53.606;9.872;2023-08-08T01:02:15;4.63;;;2.53;;
13805;SDS011;6974;53.606;9.872;2023-08-08T01:04:42;4.47;;;2.93;;
13805;SDS011;6974;53.606;9.872;2023-08-08T01:07:13;4.73;;;2.37;;
13805;SDS011;6974;53.606;9.872;2023-08-08T01:09:48;6.40;;;2.80;;
13805;SDS011;6974;53.606;9.872;2023-08-08T01:12:19;5.07;;;2.60;;
13805;SDS011;6974;53.606;9.872;2023-08-08T01:14:48;4.97;;;2.73;;
13805;SDS011;6974;53.606;9.872;2023-08-08T01:17:15;5.67;;;2.70;;
13805;SDS011;6974;53.606;9.872;2023-08-08T01:19:42;4.83;;;2.50;;
13805;SDS011;6974;53.606;9.872;2023-08-08T01:22:24;2.70;;;2.23;;
13805;SDS011;6974;53.606;9.872;2023-08-08T01:24:57;4.47;;;2.37;;
13805;SDS011;6974;53.606;9.872;2023-08-08T01:27:25;3.53;;;2.33;;
13805;SDS011;6974;53.606;9.872;2023-08-08T01:29:52;4.20;;;2.30;;
13805;SDS011;6974;53.606;9.872;2023-08-08T01:32:19;5.43;;;2.63;;
13805;SDS011;6974;53.606;9.872;2023-08-08T01:34:46;5.63;;;2.53;;
13805;SDS011;6974;53.606;9.872;2023-08-08T01:37:14;3.77;;;2.77;;
13805;SDS011;6974;53.606;9.872;2023-08-08T01:39:46;5.43;;;2.63;;
13805;SDS011;6974;53.606;9.872;2023-08-08T01:42:15;3.07;;;2.20;;
13805;SDS011;6974;53.606;9.872;2023-08-08T01:44:44;3.80;;;2.57;;
13805;SDS011;6974;53.606;9.872;2023-08-08T01:47:12;3.60;;;2.40;;
13805;SDS011;6974;53.606;9.872;2023-08-08T01:49:38;6.37;;;2.30;;
13805;SDS011;6974;53.606;9.872;2023-08-08T01:52:05;5.93;;;2.13;;
13805;SDS011;6974;53.606;9.872;2023-08-08T01:54:32;4.17;;;2.23;;
13805;SDS011;6974;53.606;9.872;2023-08-08T01:56:59;8.17;;;2.80;;
13805;SDS011;6974;53.606;9.872;2023-08-08T01:59:27;5.80;;;2.40;;
13805;SDS011;6974;53.606;9.872;2023-08-08T02:01:54;6.80;;;2.70;;
13805;SDS011;6974;53.606;9.872;2023-08-08T02:04:21;5.73;;;2.50;;
13805;SDS011;6974;53.606;9.872;2023-08-08T02:06:48;5.73;;;2.30;;
13805;SDS011;6974;53.606;9.872;2023-08-08T02:09:15;5.53;;;2.37;;
13805;SDS011;6974;53.606;9.872;2023-08-08T02:11:42;5.17;;;2.20;;
13805;SDS011;6974;53.606;9.872;2023-08-08T02:14:08;4.60;;;2.23;;
13805;SDS011;6974;53.606;9.872;2023-08-08T02:16:37;3.70;;;2.10;;
13805;SDS011;6974;53.606;9.872;2023-08-08T02:19:04;2.87;;;2.07;;
13805;SDS011;6974;53.606;9.872;2023-08-08T02:21:31;6.37;;;2.30;;
13805;SDS011;6974;53.606;9.872;2023-08-08T02:23:58;5.10;;;2.20;;
13805;SDS011;6974;53.606;9.872;2023-08-08T02:26:25;3.70;;;2.47;;
13805;SDS011;6974;53.606;9.872;2023-08-08T02:28:52;4.80;;;2.10;;
13805;SDS011;6974;53.606;9.872;2023-08-08T02:31:18;2.97;;;2.13;;
13805;SDS011;6974;53.606;9.872;2023-08-08T02:33:48;4.43;;;2.07;;
13805;SDS011;6974;53.606;9.872;2023-08-08T02:36:15;4.80;;;2.20;;
13805;SDS011;6974;53.606;9.872;2023-08-08T02:38:42;3.73;;;2.00;;
13805;SDS011;6974;53.606;9.872;2023-08-08T02:41:09;4.13;;;1.97;;
13805;SDS011;6974;53.606;9.872;2023-08-08T02:43:36;3.47;;;1.80;;
13805;SDS011;6974;53.606;9.872;2023-08-08T02:46:03;3.33;;;2.07;;
13805;SDS011;6974;53.606;9.872;2023-08-08T02:48:30;2.53;;;2.10;;
13805;SDS011;6974;53.606;9.872;2023-08-08T02:50:58;4.53;;;2.27;;
13805;SDS011;6974;53.606;9.872;2023-08-08T02:53:25;5.33;;;2.13;;
13805;SDS011;6974;53.606;9.872;2023-08-08T02:55:52;3.17;;;1.90;;
13805;SDS011;6974;53.606;9.872;2023-08-08T02:58:19;2.57;;;2.17;;
13805;SDS011;6974;53.606;9.872;2023-08-08T03:00:46;4.20;;;1.90;;
13805;SDS011;6974;53.606;9.872;2023-08-08T03:03:13;3.50;;;1.93;;
13805;SDS011;6974;53.606;9.872;2023-08-08T03:05:39;4.40;;;2.07;;
13805;SDS011;6974;53.606;9.872;2023-08-08T03:08:08;4.30;;;1.93;;
13805;SDS011;6974;53.606;9.872;2023-08-08T03:10:34;3.93;;;2.20;;
13805;SDS011;6974;53.606;9.872;2023-08-08T03:13:01;3.40;;;1.90;;
13805;SDS011;6974;53.606;9.872;2023-08-08T03:15:28;2.60;;;2.20;;
13805;SDS011;6974;53.606;9.872;2023-08-08T03:17:55;3.27;;;2.40;;
13805;SDS011;6974;53.606;9.872;2023-08-08T03:20:22;3.47;;;2.03;;
13805;SDS011;6974;53.606;9.872;2023-08-08T03:22:49;3.17;;;2.23;;
13805;SDS011;6974;53.606;9.872;2023-08-08T03:25:18;4.80;;;2.20;;
13805;SDS011;6974;53.606;9.872;2023-08-08T03:27:44;4.67;;;2.20;;
13805;SDS011;6974;53.606;9.872;2023-08-08T03:30:12;6.07;;;2.30;;
13805;SDS011;6974;53.606;9.872;2023-08-08T03:32:39;2.83;;;2.13;;
13805;SDS011;6974;53.606;9.872;2023-08-08T03:35:07;9.30;;;3.40;;
13805;SDS011;6974;53.606;9.872;2023-08-08T03:37:34;4.77;;;2.47;;
13805;SDS011;6974;53.606;9.872;2023-08-08T03:40:01;5.30;;;2.00;;
13805;SDS011;6974;53.606;9.872;2023-08-08T03:42:30;4.10;;;1.97;;
13805;SDS011;6974;53.606;9.872;2023-08-08T03:44:56;6.70;;;2.10;;
13805;SDS011;6974;53.606;9.872;2023-08-08T03:47:23;3.50;;;1.73;;
13805;SDS011;6974;53.606;9.872;2023-08-08T03:49:50;7.17;;;2.47;;
13805;SDS011;6974;53.606;9.872;2023-08-08T03:52:20;3.80;;;1.87;;
13805;SDS011;6974;53.606;9.872;2023-08-08T03:54:47;3.80;;;2.20;;
13805;SDS011;6974;53.606;9.872;2023-08-08T03:57:13;4.30;;;1.93;;
13805;SDS011;6974;53.606;9.872;2023-08-08T03:59:42;5.10;;;2.10;;
13805;SDS011;6974;53.606;9.872;2023-08-08T04:02:09;2.70;;;2.00;;
13805;SDS011;6974;53.606;9.872;2023-08-08T04:04:35;2.87;;;1.80;;
13805;SDS011;6974;53.606;9.872;2023-08-08T04:07:03;3.10;;;1.80;;
13805;SDS011;6974;53.606;9.872;2023-08-08T04:09:30;3.70;;;2.23;;
13805;SDS011;6974;53.606;9.872;2023-08-08T04:11:57;6.83;;;2.27;;
13805;SDS011;6974;53.606;9.872;2023-08-08T04:14:24;3.73;;;1.87;;
13805;SDS011;6974;53.606;9.872;2023-08-08T04:16:52;4.57;;;2.30;;
13805;SDS011;6974;53.606;9.872;2023-08-08T04:19:19;3.13;;;1.90;;
13805;SDS011;6974;53.606;9.872;2023-08-08T04:21:46;6.13;;;2.37;;
13805;SDS011;6974;53.606;9.872;2023-08-08T04:24:13;4.77;;;1.60;;
13805;SDS011;6974;53.606;9.872;2023-08-08T04:26:40;2.53;;;1.70;;
13805;SDS011;6974;53.606;9.872;2023-08-08T04:29:06;2.80;;;1.83;;
13805;SDS011;6974;53.606;9.872;2023-08-08T04:31:33;2.67;;;1.90;;
13805;SDS011;6974;53.606;9.872;2023-08-08T04:34:01;2.97;;;1.70;;
13805;SDS011;6974;53.606;9.872;2023-08-08T04:36:28;2.17;;;1.73;;
13805;SDS011;6974;53.606;9.872;2023-08-08T04:38:55;2.93;;;1.83;;
13805;SDS011;6974;53.606;9.872;2023-08-08T04:41:22;3.17;;;1.93;;
13805;SDS011;6974;53.606;9.872;2023-08-08T04:43:49;3.70;;;1.80;;
13805;SDS011;6974;53.606;9.872;2023-08-08T04:46:16;2.73;;;1.90;;
13805;SDS011;6974;53.606;9.872;2023-08-08T04:48:43;4.57;;;2.27;;
13805;SDS011;6974;53.606;9.872;2023-08-08T04:51:11;2.60;;;1.77;;
13805;SDS011;6974;53.606;9.872;2023-08-08T04:53:38;3.67;;;2.03;;
13805;SDS011;6974;53.606;9.872;2023-08-08T04:56:05;2.97;;;1.50;;
13805;SDS011;6974;53.606;9.872;2023-08-08T04:58:32;3.53;;;2.40;;
13805;SDS011;6974;53.606;9.872;2023-08-08T05:00:58;3.60;;;1.60;;
13805;SDS011;6974;53.606;9.872;2023-08-08T05:03:25;2.63;;;1.63;;
13805;SDS011;6974;53.606;9.872;2023-08-08T05:05:52;4.23;;;2.03;;
13805;SDS011;6974;53.606;9.872;2023-08-08T05:08:20;2.23;;;1.57;;
13805;SDS011;6974;53.606;9.872;2023-08-08T05:10:47;2.67;;;1.80;;
13805;SDS011;6974;53.606;9.872;2023-08-08T05:13:14;4.20;;;1.80;;
13805;SDS011;6974;53.606;9.872;2023-08-08T05:15:41;2.07;;;1.50;;
13805;SDS011;6974;53.606;9.872;2023-08-08T05:18:08;5.27;;;1.70;;
13805;SDS011;6974;53.606;9.872;2023-08-08T05:20:35;4.73;;;1.80;;
13805;SDS011;6974;53.606;9.872;2023-08-08T05:23:01;3.67;;;2.00;;
13805;SDS011;6974;53.606;9.872;2023-08-08T05:25:30;3.53;;;1.53;;
13805;SDS011;6974;53.606;9.872;2023-08-08T05:27:57;5.97;;;1.97;;
13805;SDS011;6974;53.606;9.872;2023-08-08T05:30:24;6.37;;;2.00;;
13805;SDS011;6974;53.606;9.872;2023-08-08T05:32:51;3.07;;;1.80;;
13805;SDS011;6974;53.606;9.872;2023-08-08T05:35:18;4.33;;;2.37;;
13805;SDS011;6974;53.606;9.872;2023-08-08T05:37:45;3.50;;;2.17;;
13805;SDS011;6974;53.606;9.872;2023-08-08T05:40:11;3.87;;;1.90;;
13805;SDS011;6974;53.606;9.872;2023-08-08T05:42:40;3.53;;;1.67;;
13805;SDS011;6974;53.606;9.872;2023-08-08T05:45:07;2.93;;;1.90;;
13805;SDS011;6974;53.606;9.872;2023-08-08T05:47:34;4.40;;;2.10;;
13805;SDS011;6974;53.606;9.872;2023-08-08T05:50:01;3.20;;;1.80;;
13805;SDS011;6974;53.606;9.872;2023-08-08T05:52:28;3.90;;;2.07;;
13805;SDS011;6974;53.606;9.872;2023-08-08T05:54:55;3.93;;;1.90;;
13805;SDS011;6974;53.606;9.872;2023-08-08T05:57:24;4.33;;;1.90;;
13805;SDS011;6974;53.606;9.872;2023-08-08T05:59:52;4.17;;;2.57;;
13805;SDS011;6974;53.606;9.872;2023-08-08T06:02:19;3.80;;;1.80;;
13805;SDS011;6974;53.606;9.872;2023-08-08T06:04:46;3.57;;;1.87;;
13805;SDS011;6974;53.606;9.872;2023-08-08T06:07:13;4.47;;;2.17;;
13805;SDS011;6974;53.606;9.872;2023-08-08T06:09:40;3.53;;;2.00;;
13805;SDS011;6974;53.606;9.872;2023-08-08T06:12:07;2.57;;;1.77;;
13805;SDS011;6974;53.606;9.872;2023-08-08T06:14:34;2.73;;;1.83;;
13805;SDS011;6974;53.606;9.872;2023-08-08T06:17:03;4.20;;;2.40;;
13805;SDS011;6974;53.606;9.872;2023-08-08T06:19:30;3.80;;;2.37;;
13805;SDS011;6974;53.606;9.872;2023-08-08T06:21:57;4.67;;;2.17;;
13805;SDS011;6974;53.606;9.872;2023-08-08T06:24:24;5.23;;;2.43;;
13805;SDS011;6974;53.606;9.872;2023-08-08T06:26:51;6.30;;;2.27;;
13805;SDS011;6974;53.606;9.872;2023-08-08T06:29:18;6.57;;;2.40;;
13805;SDS011;6974;53.606;9.872;2023-08-08T06:31:45;3.40;;;2.20;;
13805;SDS011;6974;53.606;9.872;2023-08-08T06:34:13;3.03;;;2.10;;
13805;SDS011;6974;53.606;9.872;2023-08-08T06:36:40;4.07;;;2.37;;
13805;SDS011;6974;53.606;9.872;2023-08-08T06:39:07;3.43;;;2.20;;
13805;SDS011;6974;53.606;9.872;2023-08-08T06:41:36;3.23;;;1.90;;
13805;SDS011;6974;53.606;9.872;2023-08-08T06:44:03;3.67;;;2.67;;
13805;SDS011;6974;53.606;9.872;2023-08-08T06:46:30;4.67;;;2.47;;
13805;SDS011;6974;53.606;9.872;2023-08-08T06:48:57;4.77;;;2.33;;
13805;SDS011;6974;53.606;9.872;2023-08-08T06:51:26;4.17;;;2.37;;
13805;SDS011;6974;53.606;9.872;2023-08-08T06:53:53;4.43;;;2.50;;
13805;SDS011;6974;53.606;9.872;2023-08-08T06:56:20;4.57;;;2.70;;
13805;SDS011;6974;53.606;9.872;2023-08-08T06:58:47;5.43;;;2.10;;
13805;SDS011;6974;53.606;9.872;2023-08-08T07:01:14;3.17;;;2.10;;
13805;SDS011;6974;53.606;9.872;2023-08-08T07:03:41;4.23;;;2.07;;
13805;SDS011;6974;53.606;9.872;2023-08-08T07:06:08;5.67;;;2.40;;
13805;SDS011;6974;53.606;9.872;2023-08-08T07:08:37;2.93;;;2.20;;
13805;SDS011;6974;53.606;9.872;2023-08-08T07:11:04;5.27;;;2.70;;
13805;SDS011;6974;53.606;9.872;2023-08-08T07:13:32;4.17;;;2.13;;
13805;SDS011;6974;53.606;9.872;2023-08-08T07:15:59;5.03;;;1.90;;
13805;SDS011;6974;53.606;9.872;2023-08-08T07:18:25;4.13;;;2.10;;
13805;SDS011;6974;53.606;9.872;2023-08-08T07:20:52;5.10;;;2.10;;
13805;SDS011;6974;53.606;9.872;2023-08-08T07:23:21;3.00;;;1.80;;
13805;SDS011;6974;53.606;9.872;2023-08-08T07:25:49;3.63;;;2.03;;
13805;SDS011;6974;53.606;9.872;2023-08-08T07:28:16;2.27;;;1.83;;
13805;SDS011;6974;53.606;9.872;2023-08-08T07:30:43;4.63;;;2.00;;
13805;SDS011;6974;53.606;9.872;2023-08-08T07:33:10;2.63;;;1.87;;
13805;SDS011;6974;53.606;9.872;2023-08-08T07:35:38;4.27;;;1.83;;
13805;SDS011;6974;53.606;9.872;2023-08-08T07:38:05;3.67;;;1.80;;
13805;SDS011;6974;53.606;9.872;2023-08-08T07:40:32;4.40;;;1.90;;
13805;SDS011;6974;53.606;9.872;2023-08-08T07:43:00;3.57;;;1.90;;
13805;SDS011;6974;53.606;9.872;2023-08-08T07:45:27;5.80;;;2.00;;
13805;SDS011;6974;53.606;9.872;2023-08-08T07:47:54;6.03;;;2.30;;
13805;SDS011;6974;53.606;9.872;2023-08-08T07:50:21;3.37;;;2.10;;
13805;SDS011;6974;53.606;9.872;2023-08-08T07:52:48;5.97;;;1.90;;
13805;SDS011;6974;53.606;9.872;2023-08-08T07:55:14;3.60;;;2.27;;
13805;SDS011;6974;53.606;9.872;2023-08-08T07:57:41;5.27;;;2.30;;
13805;SDS011;6974;53.606;9.872;2023-08-08T08:00:10;3.53;;;2.03;;
13805;SDS011;6974;53.606;9.872;2023-08-08T08:02:38;5.23;;;2.10;;
13805;SDS011;6974;53.606;9.872;2023-08-08T08:05:05;3.50;;;2.13;;
13805;SDS011;6974;53.606;9.872;2023-08-08T08:07:33;7.57;;;2.53;;
13805;SDS011;6974;53.606;9.872;2023-08-08T08:10:01;6.87;;;2.87;;
13805;SDS011;6974;53.606;9.872;2023-08-08T08:12:29;5.20;;;2.60;;
13805;SDS011;6974;53.606;9.872;2023-08-08T08:14:56;7.40;;;2.40;;
13805;SDS011;6974;53.606;9.872;2023-08-08T08:17:24;5.07;;;2.07;;
13805;SDS011;6974;53.606;9.872;2023-08-08T08:19:53;4.87;;;2.50;;
13805;SDS011;6974;53.606;9.872;2023-08-08T08:22:20;5.73;;;2.20;;
13805;SDS011;6974;53.606;9.872;2023-08-08T08:24:47;5.30;;;2.43;;
13805;SDS011;6974;53.606;9.872;2023-08-08T08:27:14;5.97;;;2.00;;
13805;SDS011;6974;53.606;9.872;2023-08-08T08:29:40;3.57;;;2.00;;
13805;SDS011;6974;53.606;9.872;2023-08-08T08:32:07;4.37;;;2.00;;
13805;SDS011;6974;53.606;9.872;2023-08-08T08:34:36;2.83;;;1.80;;
13805;SDS011;6974;53.606;9.872;2023-08-08T08:37:03;4.03;;;1.87;;
13805;SDS011;6974;53.606;9.872;2023-08-08T08:39:30;2.77;;;1.70;;
13805;SDS011;6974;53.606;9.872;2023-08-08T08:41:58;2.97;;;1.60;;
13805;SDS011;6974;53.606;9.872;2023-08-08T08:44:29;1.80;;;1.60;;
13805;SDS011;6974;53.606;9.872;2023-08-08T08:46:58;2.00;;;1.30;;
13805;SDS011;6974;53.606;9.872;2023-08-08T08:49:27;3.03;;;1.60;;
13805;SDS011;6974;53.606;9.872;2023-08-08T08:51:58;4.10;;;1.50;;
13805;SDS011;6974;53.606;9.872;2023-08-08T08:54:26;3.00;;;1.63;;
13805;SDS011;6974;53.606;9.872;2023-08-08T08:56:55;3.07;;;1.57;;
13805;SDS011;6974;53.606;9.872;2023-08-08T08:59:22;2.47;;;1.70;;
13805;SDS011;6974;53.606;9.872;2023-08-08T09:01:50;3.10;;;1.63;;
13805;SDS011;6974;53.606;9.872;2023-08-08T09:04:18;3.30;;;1.60;;
13805;SDS011;6974;53.606;9.872;2023-08-08T09:06:46;3.10;;;1.77;;
13805;SDS011;6974;53.606;9.872;2023-08-08T09:09:16;2.73;;;1.50;;
13805;SDS011;6974;53.606;9.872;2023-08-08T09:11:47;2.10;;;1.63;;
13805;SDS011;6974;53.606;9.872;2023-08-08T09:14:15;2.80;;;1.57;;
13805;SDS011;6974;53.606;9.872;2023-08-08T09:16:43;3.13;;;1.53;;
13805;SDS011;6974;53.606;9.872;2023-08-08T09:19:10;3.07;;;1.60;;
13805;SDS011;6974;53.606;9.872;2023-08-08T09:21:36;2.43;;;1.50;;
13805;SDS011;6974;53.606;9.872;2023-08-08T09:24:04;4.50;;;1.57;;
13805;SDS011;6974;53.606;9.872;2023-08-08T09:26:33;2.87;;;1.60;;
13805;SDS011;6974;53.606;9.872;2023-08-08T09:29:00;4.63;;;1.70;;
13805;SDS011;6974;53.606;9.872;2023-08-08T09:31:28;3.60;;;1.67;;
13805;SDS011;6974;53.606;9.872;2023-08-08T09:33:56;4.03;;;1.97;;
13805;SDS011;6974;53.606;9.872;2023-08-08T09:36:23;4.97;;;2.10;;
13805;SDS011;6974;53.606;9.872;2023-08-08T09:38:50;3.37;;;1.80;;
13805;SDS011;6974;53.606;9.872;2023-08-08T09:41:18;2.90;;;1.97;;
13805;SDS011;6974;53.606;9.872;2023-08-08T09:43:47;3.07;;;1.63;;
13805;SDS011;6974;53.606;9.872;2023-08-08T09:46:14;2.27;;;1.43;;
13805;SDS011;6974;53.606;9.872;2023-08-08T09:48:41;2.93;;;1.70;;
13805;SDS011;6974;53.606;9.872;2023-08-08T09:51:08;2.57;;;1.73;;
13805;SDS011;6974;53.606;9.872;2023-08-08T09:53:35;3.70;;;1.73;;
13805;SDS011;6974;53.606;9.872;2023-08-08T09:56:03;4.40;;;1.60;;
13805;SDS011;6974;53.606;9.872;2023-08-08T09:58:32;11.73;;;2.93;;
13805;SDS011;6974;53.606;9.872;2023-08-08T10:01:01;8.17;;;2.70;;
13805;SDS011;6974;53.606;9.872;2023-08-08T10:03:30;4.53;;;2.00;;
13805;SDS011;6974;53.606;9.872;2023-08-08T10:05:58;4.73;;;1.83;;
13805;SDS011;6974;53.606;9.872;2023-08-08T10:08:24;3.13;;;1.70;;
13805;SDS011;6974;53.606;9.872;2023-08-08T10:10:51;5.97;;;2.20;;
13805;SDS011;6974;53.606;9.872;2023-08-08T10:13:19;6.33;;;1.87;;
13805;SDS011;6974;53.606;9.872;2023-08-08T10:15:47;3.73;;;2.13;;
13805;SDS011;6974;53.606;9.872;2023-08-08T10:18:15;3.97;;;1.93;;
13805;SDS011;6974;53.606;9.872;2023-08-08T10:20:43;3.17;;;1.90;;
13805;SDS011;6974;53.606;9.872;2023-08-08T10:23:10;4.57;;;2.67;;
13805;SDS011;6974;53.606;9.872;2023-08-08T10:25:37;3.63;;;2.00;;
13805;SDS011;6974;53.606;9.872;2023-08-08T10:28:12;2.87;;;1.70;;
13805;SDS011;6974;53.606;9.872;2023-08-08T10:30:43;4.27;;;2.00;;
13805;SDS011;6974;53.606;9.872;2023-08-08T10:33:19;3.90;;;2.00;;
13805;SDS011;6974;53.606;9.872;2023-08-08T10:35:57;3.90;;;1.60;;
13805;SDS011;6974;53.606;9.872;2023-08-08T10:38:25;5.77;;;2.17;;
13805;SDS011;6974;53.606;9.872;2023-08-08T10:40:56;4.30;;;2.37;;
13805;SDS011;6974;53.606;9.872;2023-08-08T10:43:27;2.67;;;1.57;;
13805;SDS011;6974;53.606;9.872;2023-08-08T10:45:56;2.20;;;1.73;;
13805;SDS011;6974;53.606;9.872;2023-08-08T10:48:26;4.43;;;1.57;;
13805;SDS011;6974;53.606;9.872;2023-08-08T10:50:54;2.87;;;1.77;;
13805;SDS011;6974;53.606;9.872;2023-08-08T10:53:25;3.03;;;1.53;;
13805;SDS011;6974;53.606;9.872;2023-08-08T10:55:59;3.93;;;1.87;;
13805;SDS011;6974;53.606;9.872;2023-08-08T10:58:36;2.83;;;1.53;;
13805;SDS011;6974;53.606;9.872;2023-08-08T11:01:04;4.33;;;1.67;;
13805;SDS011;6974;53.606;9.872;2023-08-08T11:03:35;4.03;;;1.80;;
13805;SDS011;6974;53.606;9.872;2023-08-08T11:06:04;2.83;;;1.73;;
13805;SDS011;6974;53.606;9.872;2023-08-08T11:08:32;3.53;;;1.90;;
13805;SDS011;6974;53.606;9.872;2023-08-08T11:11:01;1.73;;;1.40;;
13805;SDS011;6974;53.606;9.872;2023-08-08T11:13:28;2.10;;;1.90;;
13805;SDS011;6974;53.606;9.872;2023-08-08T11:15:55;2.70;;;1.43;;
13805;SDS011;6974;53.606;9.872;2023-08-08T11:18:23;4.90;;;1.90;;
13805;SDS011;6974;53.606;9.872;2023-08-08T11:20:52;2.67;;;1.60;;
13805;SDS011;6974;53.606;9.872;2023-08-08T11:23:19;5.20;;;1.93;;
13805;SDS011;6974;53.606;9.872;2023-08-08T11:25:47;4.30;;;1.77;;
13805;SDS011;6974;53.606;9.872;2023-08-08T11:28:15;3.97;;;1.87;;
13805;SDS011;6974;53.606;9.872;2023-08-08T11:30:42;2.93;;;1.70;;
13805;SDS011;6974;53.606;9.872;2023-08-08T11:33:12;3.87;;;1.83;;
13805;SDS011;6974;53.606;9.872;2023-08-08T11:35:43;3.10;;;1.80;;
13805;SDS011;6974;53.606;9.872;2023-08-08T11:38:14;3.70;;;1.80;;
13805;SDS011;6974;53.606;9.872;2023-08-08T11:40:42;5.93;;;2.20;;
13805;SDS011;6974;53.606;9.872;2023-08-08T11:43:10;3.37;;;1.63;;
13805;SDS011;6974;53.606;9.872;2023-08-08T11:45:38;2.90;;;1.70;;
13805;SDS011;6974;53.606;9.872;2023-08-08T11:48:07;3.93;;;1.60;;
13805;SDS011;6974;53.606;9.872;2023-08-08T11:50:36;2.50;;;1.77;;
13805;SDS011;6974;53.606;9.872;2023-08-08T11:53:04;3.67;;;1.83;;
13805;SDS011;6974;53.606;9.872;2023-08-08T11:58:00;4.07;;;1.70;;
13805;SDS011;6974;53.606;9.872;2023-08-08T12:00:28;4.83;;;1.60;;
13805;SDS011;6974;53.606;9.872;2023-08-08T12:02:56;4.83;;;1.73;;
13805;SDS011;6974;53.606;9.872;2023-08-08T12:05:24;3.33;;;1.80;;
13805;SDS011;6974;53.606;9.872;2023-08-08T12:07:52;4.07;;;1.60;;
13805;SDS011;6974;53.606;9.872;2023-08-08T12:10:21;2.33;;;1.67;;
13805;SDS011;6974;53.606;9.872;2023-08-08T12:12:52;3.93;;;2.17;;
13805;SDS011;6974;53.606;9.872;2023-08-08T12:15:23;4.37;;;1.77;;
13805;SDS011;6974;53.606;9.872;2023-08-08T12:17:54;3.67;;;1.90;;
13805;SDS011;6974;53.606;9.872;2023-08-08T12:20:21;3.07;;;1.70;;
13805;SDS011;6974;53.606;9.872;2023-08-08T12:22:48;4.20;;;1.93;;
13805;SDS011;6974;53.606;9.872;2023-08-08T12:25:16;3.80;;;1.70;;
13805;SDS011;6974;53.606;9.872;2023-08-08T12:27:43;6.40;;;2.00;;
13805;SDS011;6974;53.606;9.872;2023-08-08T12:30:10;3.43;;;1.97;;
13805;SDS011;6974;53.606;9.872;2023-08-08T12:32:39;4.07;;;1.77;;
13805;SDS011;6974;53.606;9.872;2023-08-08T12:35:06;5.60;;;1.90;;
13805;SDS011;6974;53.606;9.872;2023-08-08T12:37:34;4.53;;;2.10;;
13805;SDS011;6974;53.606;9.872;2023-08-08T12:40:01;7.20;;;2.43;;
13805;SDS011;6974;53.606;9.872;2023-08-08T12:42:28;5.57;;;2.47;;
13805;SDS011;6974;53.606;9.872;2023-08-08T12:44:55;5.13;;;1.90;;
13805;SDS011;6974;53.606;9.872;2023-08-08T12:47:22;4.83;;;2.10;;
13805;SDS011;6974;53.606;9.872;2023-08-08T12:49:51;6.87;;;2.13;;
13805;SDS011;6974;53.606;9.872;2023-08-08T12:52:18;6.07;;;2.27;;
13805;SDS011;6974;53.606;9.872;2023-08-08T12:54:45;4.60;;;1.83;;
13805;SDS011;6974;53.606;9.872;2023-08-08T12:57:12;4.30;;;2.00;;
13805;SDS011;6974;53.606;9.872;2023-08-08T12:59:39;5.07;;;2.10;;
13805;SDS011;6974;53.606;9.872;2023-08-08T13:02:07;6.20;;;2.30;;
13805;SDS011;6974;53.606;9.872;2023-08-08T13:04:34;5.77;;;2.13;;
13805;SDS011;6974;53.606;9.872;2023-08-08T13:07:02;5.07;;;2.33;;
13805;SDS011;6974;53.606;9.872;2023-08-08T13:09:30;5.87;;;2.67;;
13805;SDS011;6974;53.606;9.872;2023-08-08T13:11:57;3.50;;;2.00;;
13805;SDS011;6974;53.606;9.872;2023-08-08T13:14:24;5.03;;;2.63;;
13805;SDS011;6974;53.606;9.872;2023-08-08T13:16:51;7.60;;;2.97;;
13805;SDS011;6974;53.606;9.872;2023-08-08T13:19:19;5.63;;;2.63;;
13805;SDS011;6974;53.606;9.872;2023-08-08T13:21:49;5.30;;;2.17;;
13805;SDS011;6974;53.606;9.872;2023-08-08T13:24:18;8.47;;;2.60;;
13805;SDS011;6974;53.606;9.872;2023-08-08T13:26:46;6.13;;;2.30;;
13805;SDS011;6974;53.606;9.872;2023-08-08T13:29:12;6.20;;;2.20;;
13805;SDS011;6974;53.606;9.872;2023-08-08T13:31:39;6.93;;;2.80;;
13805;SDS011;6974;53.606;9.872;2023-08-08T13:34:07;4.97;;;2.37;;
13805;SDS011;6974;53.606;9.872;2023-08-08T13:36:34;5.67;;;2.30;;
13805;SDS011;6974;53.606;9.872;2023-08-08T13:39:01;5.77;;;2.37;;
13805;SDS011;6974;53.606;9.872;2023-08-08T13:41:30;5.50;;;2.30;;
13805;SDS011;6974;53.606;9.872;2023-08-08T13:43:57;3.80;;;2.27;;
13805;SDS011;6974;53.606;9.872;2023-08-08T13:46:27;5.03;;;2.30;;
13805;SDS011;6974;53.606;9.872;2023-08-08T13:48:55;7.70;;;2.20;;
13805;SDS011;6974;53.606;9.872;2023-08-08T13:51:22;3.80;;;1.80;;
13805;SDS011;6974;53.606;9.872;2023-08-08T13:53:48;3.87;;;1.80;;
13805;SDS011;6974;53.606;9.872;2023-08-08T13:56:16;4.93;;;2.23;;
13805;SDS011;6974;53.606;9.872;2023-08-08T13:58:45;5.17;;;2.00;;
13805;SDS011;6974;53.606;9.872;2023-08-08T14:01:12;5.80;;;1.97;;
13805;SDS011;6974;53.606;9.872;2023-08-08T14:03:39;4.80;;;2.10;;
13805;SDS011;6974;53.606;9.872;2023-08-08T14:06:06;4.47;;;1.80;;
13805;SDS011;6974;53.606;9.872;2023-08-08T14:08:35;4.37;;;2.00;;
13805;SDS011;6974;53.606;9.872;2023-08-08T14:11:04;5.73;;;1.83;;
13805;SDS011;6974;53.606;9.872;2023-08-08T14:13:31;5.57;;;1.90;;
13805;SDS011;6974;53.606;9.872;2023-08-08T14:16:00;5.37;;;2.03;;
13805;SDS011;6974;53.606;9.872;2023-08-08T14:18:29;6.37;;;2.00;;
13805;SDS011;6974;53.606;9.872;2023-08-08T14:20:56;5.70;;;2.30;;
13805;SDS011;6974;53.606;9.872;2023-08-08T14:23:23;7.03;;;2.27;;
13805;SDS011;6974;53.606;9.872;2023-08-08T14:25:50;4.43;;;1.97;;
13805;SDS011;6974;53.606;9.872;2023-08-08T14:28:17;4.43;;;2.20;;
13805;SDS011;6974;53.606;9.872;2023-08-08T14:30:44;5.50;;;2.40;;
13805;SDS011;6974;53.606;9.872;2023-08-08T14:33:14;4.83;;;2.20;;
13805;SDS011;6974;53.606;9.872;2023-08-08T14:35:44;5.53;;;2.00;;
13805;SDS011;6974;53.606;9.872;2023-08-08T14:38:11;3.93;;;1.77;;
13805;SDS011;6974;53.606;9.872;2023-08-08T14:40:38;6.63;;;2.07;;
13805;SDS011;6974;53.606;9.872;2023-08-08T14:43:06;4.13;;;1.93;;
13805;SDS011;6974;53.606;9.872;2023-08-08T14:45:36;5.07;;;1.90;;
13805;SDS011;6974;53.606;9.872;2023-08-08T14:48:05;4.83;;;1.77;;
13805;SDS011;6974;53.606;9.872;2023-08-08T14:50:34;6.37;;;2.03;;
13805;SDS011;6974;53.606;9.872;2023-08-08T14:53:01;2.10;;;1.60;;
13805;SDS011;6974;53.606;9.872;2023-08-08T14:55:29;4.13;;;1.70;;
13805;SDS011;6974;53.606;9.872;2023-08-08T14:57:57;3.57;;;1.77;;
13805;SDS011;6974;53.606;9.872;2023-08-08T15:00:24;3.73;;;1.97;;
13805;SDS011;6974;53.606;9.872;2023-08-08T15:02:52;5.57;;;2.00;;
13805;SDS011;6974;53.606;9.872;2023-08-08T15:05:19;3.57;;;1.70;;